createdAt,value
2022-12-22T00:02:21.817Z,63.90
2022-12-22T00:04:50.885Z,66.60
2022-12-22T00:07:19.091Z,70.30
2022-12-22T00:09:47.436Z,72.30
2022-12-22T00:12:18.101Z,73.60
2022-12-22T00:14:47.335Z,74.20
2022-12-22T00:17:27.568Z,74.80
2022-12-22T00:19:55.958Z,67.30
2022-12-22T00:22:26.384Z,61.20
2022-12-22T00:24:54.634Z,65.80
2022-12-22T00:27:30.194Z,69.40
2022-12-22T00:29:58.526Z,72.00
2022-12-22T00:32:34.747Z,71.50
2022-12-22T00:35:03.004Z,70.70
2022-12-22T00:37:33.988Z,62.80
2022-12-22T00:40:02.834Z,59.30
2022-12-22T00:42:31.330Z,66.00
2022-12-22T00:44:59.482Z,68.80
2022-12-22T00:47:31.231Z,68.80
2022-12-22T00:49:59.780Z,67.40
2022-12-22T00:52:27.931Z,60.90
2022-12-22T00:54:56.424Z,59.40
2022-12-22T00:57:26.724Z,65.30
2022-12-22T00:59:57.241Z,66.60
2022-12-22T01:02:25.552Z,66.10
2022-12-22T01:04:53.907Z,63.20
2022-12-22T01:07:23.977Z,57.80
2022-12-22T01:09:53.425Z,62.00
2022-12-22T01:12:24.992Z,66.20
2022-12-22T01:14:53.198Z,67.10
2022-12-22T01:17:33.673Z,65.50
2022-12-22T01:20:01.913Z,59.30
2022-12-22T01:22:30.389Z,58.10
2022-12-22T01:24:58.710Z,65.50
2022-12-22T01:27:26.831Z,68.70
2022-12-22T01:29:54.986Z,68.80
2022-12-22T01:32:23.261Z,65.30
2022-12-22T01:34:51.425Z,59.90
2022-12-22T01:37:19.594Z,59.10
2022-12-22T01:39:47.830Z,67.30
2022-12-22T01:42:16.724Z,69.90
2022-12-22T01:44:44.653Z,71.40
2022-12-22T01:47:28.192Z,68.40
2022-12-22T01:49:56.623Z,61.50
2022-12-22T01:52:32.320Z,60.60
2022-12-22T01:55:06.286Z,68.10
2022-12-22T01:57:35.026Z,71.50
2022-12-22T02:00:03.066Z,73.10
2022-12-22T02:02:41.237Z,67.80
2022-12-22T02:05:12.399Z,61.80
2022-12-22T02:07:43.539Z,66.30
2022-12-22T02:10:27.432Z,71.00
2022-12-22T02:13:06.115Z,73.70
2022-12-22T02:15:39.031Z,74.30
2022-12-22T02:18:19.952Z,66.30
2022-12-22T02:20:55.864Z,62.40
2022-12-22T02:23:36.227Z,69.80
2022-12-22T02:26:33.759Z,73.20
2022-12-22T02:29:03.705Z,75.70
2022-12-22T02:31:42.470Z,74.30
2022-12-22T02:34:15.526Z,65.80
2022-12-22T02:37:09.540Z,62.90
2022-12-22T02:39:57.998Z,70.60
2022-12-22T02:42:45.272Z,73.80
2022-12-22T02:45:27.884Z,76.30
2022-12-22T02:48:05.390Z,73.20
2022-12-22T02:51:01.906Z,65.40
2022-12-22T02:53:30.984Z,69.40
2022-12-22T02:56:06.218Z,73.60
2022-12-22T02:58:35.787Z,75.90
2022-12-22T03:01:06.913Z,75.80
2022-12-22T03:03:45.657Z,67.20
2022-12-22T03:06:13.968Z,64.70
2022-12-22T03:08:42.178Z,72.30
2022-12-22T03:11:10.388Z,75.00
2022-12-22T03:13:38.615Z,76.80
2022-12-22T03:16:06.870Z,77.50
2022-12-22T03:18:35.238Z,68.90
2022-12-22T03:21:03.481Z,65.70
2022-12-22T03:23:34.136Z,72.60
2022-12-22T03:26:02.446Z,75.60
2022-12-22T03:28:30.673Z,77.50
2022-12-22T03:31:05.935Z,77.80
2022-12-22T03:33:35.002Z,68.90
2022-12-22T03:36:03.345Z,65.20
2022-12-22T03:38:31.825Z,70.50
2022-12-22T03:41:00.243Z,74.80
2022-12-22T03:43:28.668Z,76.70
2022-12-22T03:45:57.696Z,78.20
2022-12-22T03:48:26.539Z,77.30
2022-12-22T03:50:54.942Z,68.40
2022-12-22T03:53:23.180Z,65.00
2022-12-22T03:55:51.385Z,72.60
2022-12-22T03:58:19.676Z,75.40
2022-12-22T04:00:49.497Z,77.60
2022-12-22T04:03:17.795Z,78.20
2022-12-22T04:05:46.835Z,76.50
2022-12-22T04:08:15.127Z,68.20
2022-12-22T04:10:43.438Z,66.90
2022-12-22T04:13:11.777Z,73.50
2022-12-22T04:15:39.988Z,76.30
2022-12-22T04:18:08.664Z,78.20
2022-12-22T04:20:36.805Z,79.10
2022-12-22T04:23:05.258Z,76.30
2022-12-22T04:25:33.595Z,68.40
2022-12-22T04:28:01.814Z,67.60
2022-12-22T04:30:30.111Z,74.00
2022-12-22T04:32:58.255Z,76.90
2022-12-22T04:35:26.680Z,78.60
2022-12-22T04:37:54.833Z,79.90
2022-12-22T04:40:23.374Z,74.40
2022-12-22T04:42:51.604Z,67.50
2022-12-22T04:45:19.914Z,72.10
2022-12-22T04:47:48.144Z,75.80
2022-12-22T04:50:16.430Z,77.80
2022-12-22T04:52:44.775Z,79.60
2022-12-22T04:55:13.038Z,80.20
2022-12-22T04:57:41.397Z,70.70
2022-12-22T05:00:10.626Z,66.60
2022-12-22T05:02:38.943Z,73.20
2022-12-22T05:05:07.931Z,76.00
2022-12-22T05:07:36.366Z,78.10
2022-12-22T05:10:06.264Z,79.30
2022-12-22T05:12:34.494Z,77.40
2022-12-22T05:15:02.993Z,69.10
2022-12-22T05:17:31.234Z,67.80
2022-12-22T05:19:59.475Z,74.60
2022-12-22T05:22:27.711Z,77.20
2022-12-22T05:24:55.959Z,78.70
2022-12-22T05:27:24.153Z,79.80
2022-12-22T05:29:52.326Z,75.30
2022-12-22T05:32:21.597Z,68.50
2022-12-22T05:34:49.717Z,70.20
2022-12-22T05:37:18.098Z,75.20
2022-12-22T05:39:46.185Z,77.50
2022-12-22T05:42:14.522Z,78.90
2022-12-22T05:44:42.845Z,80.20
2022-12-22T05:47:10.961Z,74.10
2022-12-22T05:49:39.256Z,68.20
2022-12-22T05:52:07.642Z,72.50
2022-12-22T05:54:35.862Z,76.40
2022-12-22T05:57:04.143Z,78.50
2022-12-22T05:59:32.483Z,79.80
2022-12-22T06:02:00.833Z,80.50
2022-12-22T06:04:29.444Z,74.20
2022-12-22T06:06:57.914Z,68.50
2022-12-22T06:09:26.099Z,73.40
2022-12-22T06:11:54.342Z,77.00
2022-12-22T06:14:22.733Z,78.80
2022-12-22T06:16:51.061Z,80.60
2022-12-22T06:19:19.265Z,81.10
2022-12-22T06:21:47.455Z,73.00
2022-12-22T06:24:20.311Z,67.60
2022-12-22T06:26:48.970Z,73.10
2022-12-22T06:29:17.127Z,76.40
2022-12-22T06:31:46.116Z,78.60
2022-12-22T06:34:15.165Z,80.00
2022-12-22T06:36:43.370Z,80.90
2022-12-22T06:39:11.477Z,78.30
2022-12-22T06:41:39.906Z,70.40
2022-12-22T06:44:08.138Z,69.60
2022-12-22T06:46:36.226Z,75.50
2022-12-22T06:49:04.613Z,78.20
2022-12-22T06:51:33.031Z,79.50
2022-12-22T06:54:02.437Z,81.10
2022-12-22T06:56:30.546Z,81.20
2022-12-22T06:58:58.806Z,72.90
2022-12-22T07:01:27.348Z,70.40
2022-12-22T07:03:56.180Z,77.50
2022-12-22T07:06:25.793Z,81.10
2022-12-22T07:08:54.974Z,82.30
2022-12-22T07:11:24.318Z,84.30
2022-12-22T07:13:53.790Z,78.30
2022-12-22T07:16:22.573Z,72.50
2022-12-22T07:18:50.870Z,75.90
2022-12-22T07:21:19.279Z,80.40
2022-12-22T07:23:47.591Z,82.40
2022-12-22T07:26:16.201Z,83.40
2022-12-22T07:28:44.101Z,84.20
2022-12-22T07:31:15.110Z,77.70
2022-12-22T07:33:44.663Z,71.60
2022-12-22T07:36:18.693Z,75.70
2022-12-22T07:38:49.550Z,79.30
2022-12-22T07:41:20.570Z,81.20
2022-12-22T07:43:48.789Z,82.60
2022-12-22T07:46:17.044Z,83.40
2022-12-22T07:48:45.484Z,79.90
2022-12-22T07:51:13.860Z,72.20
2022-12-22T07:53:42.093Z,71.30
2022-12-22T07:56:10.319Z,77.10
2022-12-22T07:58:38.658Z,79.50
2022-12-22T08:01:06.902Z,81.00
2022-12-22T08:03:35.248Z,82.20
2022-12-22T08:06:05.751Z,83.40
2022-12-22T08:08:35.213Z,75.60
2022-12-22T08:11:03.871Z,70.60
2022-12-22T08:13:32.514Z,75.90
2022-12-22T08:16:05.432Z,78.60
2022-12-22T08:18:35.243Z,81.20
2022-12-22T08:21:04.622Z,83.40
2022-12-22T08:23:33.288Z,84.60
2022-12-22T08:26:04.327Z,78.90
2022-12-22T08:28:35.711Z,72.20
2022-12-22T08:31:05.199Z,75.30
2022-12-22T08:33:33.706Z,79.00
2022-12-22T08:36:07.786Z,81.80
2022-12-22T08:38:39.380Z,82.80
2022-12-22T08:41:11.045Z,83.90
2022-12-22T08:43:39.382Z,76.00
2022-12-22T08:46:07.884Z,71.10
2022-12-22T08:48:36.037Z,75.50
2022-12-22T08:51:04.521Z,78.70
2022-12-22T08:56:21.097Z,81.90
2022-12-22T08:58:49.461Z,83.20
2022-12-22T09:01:22.498Z,75.40
2022-12-22T09:03:52.092Z,70.90
2022-12-22T09:06:26.991Z,76.00
2022-12-22T09:08:57.666Z,79.20
2022-12-22T09:11:26.155Z,80.80
2022-12-22T09:13:56.552Z,83.10
2022-12-22T09:16:26.260Z,83.00
2022-12-22T09:18:55.164Z,75.60
2022-12-22T09:21:23.482Z,71.20
2022-12-22T09:23:52.407Z,74.60
2022-12-22T09:26:21.549Z,78.70
2022-12-22T09:28:50.894Z,80.30
2022-12-22T09:31:21.309Z,81.50
2022-12-22T09:33:49.577Z,82.30
2022-12-22T09:36:26.435Z,81.40
2022-12-22T09:38:54.718Z,73.30
2022-12-22T09:41:43.355Z,70.40
2022-12-22T09:44:17.168Z,76.80
2022-12-22T09:46:45.564Z,79.30
2022-12-22T09:49:19.023Z,81.00
2022-12-22T09:51:57.858Z,81.90
2022-12-22T09:54:27.357Z,81.10
2022-12-22T09:56:56.317Z,73.40
2022-12-22T09:59:28.884Z,70.30
2022-12-22T10:02:20.285Z,75.70
2022-12-22T10:05:27.777Z,79.00
2022-12-22T10:08:07.193Z,80.90
2022-12-22T10:10:35.613Z,82.70
2022-12-22T10:13:05.667Z,77.20
2022-12-22T10:15:39.646Z,71.70
2022-12-22T10:18:17.301Z,70.40
2022-12-22T10:21:10.403Z,76.70
2022-12-22T10:23:49.467Z,79.40
2022-12-22T10:26:31.772Z,81.10
2022-12-22T10:29:30.091Z,79.60
2022-12-22T10:32:04.911Z,71.60
2022-12-22T10:34:33.260Z,70.10
2022-12-22T10:37:03.644Z,76.30
2022-12-22T10:39:34.700Z,79.00
2022-12-22T10:42:14.062Z,80.40
2022-12-22T10:44:48.551Z,82.00
2022-12-22T10:47:22.960Z,73.70
2022-12-22T10:52:29.427Z,70.20
2022-12-22T10:55:18.757Z,76.40
2022-12-22T10:57:47.025Z,78.60
2022-12-22T11:00:29.930Z,80.60
2022-12-22T11:03:00.754Z,77.80
2022-12-22T11:05:37.046Z,71.60
2022-12-22T11:08:18.188Z,69.00
2022-12-22T11:11:05.865Z,73.70
2022-12-22T11:13:46.463Z,77.10
2022-12-22T11:16:47.527Z,79.40
2022-12-22T11:19:36.402Z,81.00
2022-12-22T11:22:19.028Z,72.90
2022-12-22T11:25:24.307Z,69.00
2022-12-22T11:28:28.003Z,73.10
2022-12-22T11:31:33.072Z,77.70
2022-12-22T11:34:13.286Z,79.70
2022-12-22T11:37:05.581Z,81.20
2022-12-22T11:39:57.490Z,73.30
2022-12-22T11:42:42.856Z,68.70
2022-12-22T11:45:49.091Z,72.60
2022-12-22T11:48:23.617Z,77.00
2022-12-22T11:51:00.895Z,79.30
2022-12-22T11:54:04.047Z,80.30
2022-12-22T11:56:40.999Z,71.40
2022-12-22T11:59:21.215Z,68.70
2022-12-22T12:02:14.379Z,73.80
2022-12-22T12:05:12.604Z,77.80
2022-12-22T12:08:16.265Z,79.60
2022-12-22T12:11:21.552Z,77.20
2022-12-22T12:14:08.355Z,70.00
2022-12-22T12:17:07.351Z,67.80
2022-12-22T12:20:03.638Z,74.30
2022-12-22T12:22:48.066Z,77.60
2022-12-22T12:25:53.522Z,79.50
2022-12-22T12:28:21.791Z,77.10
2022-12-22T12:30:53.725Z,70.70
2022-12-22T12:33:37.519Z,67.20
2022-12-22T12:36:14.889Z,71.60
2022-12-22T12:39:10.607Z,75.80
2022-12-22T12:41:48.544Z,77.50
2022-12-22T12:44:21.736Z,79.60
2022-12-22T12:46:52.872Z,72.70
2022-12-22T12:49:36.893Z,68.50
2022-12-22T12:52:11.529Z,66.70
2022-12-22T12:54:46.959Z,73.70
2022-12-22T12:57:44.489Z,76.40
2022-12-22T13:00:34.186Z,78.50
2022-12-22T13:03:19.881Z,74.70
2022-12-22T13:06:01.052Z,69.80
2022-12-22T13:08:30.491Z,67.70
2022-12-22T13:10:58.517Z,70.20
2022-12-22T13:13:26.776Z,74.90
2022-12-22T13:16:01.076Z,77.60
2022-12-22T13:18:35.770Z,79.40
2022-12-22T13:21:42.589Z,71.50
2022-12-22T13:24:26.559Z,68.20
2022-12-22T13:27:01.193Z,65.70
2022-12-22T13:29:38.283Z,72.80
2022-12-22T13:32:21.572Z,75.70
2022-12-22T13:37:49.988Z,74.30
2022-12-22T13:40:27.343Z,67.90
2022-12-22T13:43:00.447Z,65.10
2022-12-22T13:45:47.359Z,65.30
2022-12-22T13:48:26.017Z,72.40
2022-12-22T13:51:07.632Z,75.10
2022-12-22T13:56:43.379Z,69.40
2022-12-22T13:59:41.296Z,66.00
2022-12-22T14:02:09.595Z,66.70
2022-12-22T14:04:40.864Z,72.50
2022-12-22T14:07:17.424Z,75.20
2022-12-22T14:09:56.165Z,76.80
2022-12-22T14:12:28.852Z,71.70
2022-12-22T14:14:59.307Z,66.80
2022-12-22T14:17:42.258Z,64.90
2022-12-22T14:20:36.363Z,68.40
2022-12-22T14:23:29.745Z,73.80
2022-12-22T14:25:59.080Z,77.00
2022-12-22T14:28:50.818Z,73.90
2022-12-22T14:31:20.338Z,67.60
2022-12-22T14:33:57.557Z,65.20
2022-12-22T14:36:40.699Z,68.90
2022-12-22T14:39:26.335Z,73.60
2022-12-22T14:42:00.604Z,76.10
2022-12-22T14:44:42.822Z,73.40
2022-12-22T14:47:11.149Z,67.00
2022-12-22T14:50:14.425Z,65.20
2022-12-22T14:52:49.093Z,65.60
2022-12-22T14:55:29.051Z,72.70
2022-12-22T14:58:15.468Z,75.10
2022-12-22T15:00:46.263Z,74.00
2022-12-22T15:03:37.383Z,66.70
2022-12-22T15:06:27.081Z,64.60
2022-12-22T15:09:07.420Z,65.00
2022-12-22T15:11:38.206Z,71.80
2022-12-22T15:14:06.853Z,74.10
2022-12-22T15:16:35.066Z,75.30
2022-12-22T15:19:05.838Z,68.20
2022-12-22T15:21:35.842Z,64.70
2022-12-22T15:24:04.188Z,62.80
2022-12-22T15:26:37.718Z,63.70
2022-12-22T15:29:06.330Z,70.40
2022-12-22T15:31:35.143Z,73.40
2022-12-22T15:34:04.174Z,74.80
2022-12-22T15:36:32.514Z,68.50
2022-12-22T15:39:00.845Z,64.70
2022-12-22T15:41:28.929Z,62.60
2022-12-22T15:43:58.925Z,61.70
2022-12-22T15:46:27.752Z,69.30
2022-12-22T15:48:55.948Z,72.40
2022-12-22T15:51:28.050Z,74.20
2022-12-22T15:53:58.047Z,69.20
2022-12-22T15:56:28.275Z,64.10
2022-12-22T15:58:57.003Z,62.00
2022-12-22T16:01:25.450Z,60.70
2022-12-22T16:03:53.879Z,67.30
2022-12-22T16:06:22.307Z,71.10
2022-12-22T16:08:53.821Z,73.70
2022-12-22T16:11:22.216Z,71.40
2022-12-22T16:13:52.057Z,65.20
2022-12-22T16:16:20.555Z,62.80
2022-12-22T16:18:48.846Z,61.60
2022-12-22T16:21:22.811Z,61.90
2022-12-22T16:23:51.630Z,69.00
2022-12-22T16:26:20.839Z,72.10
2022-12-22T16:28:49.938Z,71.90
2022-12-22T16:31:21.007Z,64.60
2022-12-22T16:33:50.005Z,62.00
2022-12-22T16:36:18.157Z,61.10
2022-12-22T16:38:46.893Z,66.20
2022-12-22T16:41:32.861Z,70.30
2022-12-22T16:46:47.175Z,70.20
2022-12-22T16:49:26.130Z,64.00
2022-12-22T16:51:56.131Z,61.00
2022-12-22T16:54:24.190Z,59.90
2022-12-22T16:56:52.513Z,64.60
2022-12-22T16:59:20.751Z,69.30
2022-12-22T17:01:54.768Z,71.60
2022-12-22T17:04:28.975Z,71.70
2022-12-22T17:06:59.750Z,64.10
2022-12-22T17:09:58.425Z,61.30
2022-12-22T17:12:29.139Z,60.30
2022-12-22T17:14:57.873Z,58.30
2022-12-22T17:17:32.064Z,65.70
2022-12-22T17:20:02.665Z,69.30
2022-12-22T17:22:33.074Z,71.60
2022-12-22T17:25:04.733Z,66.30
2022-12-22T17:27:34.678Z,61.40
2022-12-22T17:30:04.848Z,60.20
2022-12-22T17:32:33.260Z,60.00
2022-12-22T17:35:01.573Z,67.30
2022-12-22T17:37:30.016Z,70.70
2022-12-22T17:40:02.175Z,72.40
2022-12-22T17:42:31.988Z,65.70
2022-12-22T17:45:00.453Z,61.50
2022-12-22T17:47:33.413Z,59.40
2022-12-22T17:50:03.174Z,58.40
2022-12-22T17:52:35.681Z,65.50
2022-12-22T17:55:05.836Z,69.40
2022-12-22T17:57:36.359Z,72.00
2022-12-22T18:00:05.678Z,66.90
2022-12-22T18:02:39.782Z,62.30
2022-12-22T18:05:16.505Z,61.80
2022-12-22T18:07:45.483Z,61.00
2022-12-22T18:10:34.868Z,67.70
2022-12-22T18:13:03.465Z,72.80
2022-12-22T18:15:31.823Z,75.80
2022-12-22T18:18:00.093Z,69.90
2022-12-22T18:20:29.099Z,65.90
2022-12-22T18:23:02.370Z,63.90
2022-12-22T18:25:33.414Z,63.90
2022-12-22T18:28:01.757Z,62.90
2022-12-22T18:30:31.084Z,62.50
2022-12-22T18:32:59.272Z,67.70
2022-12-22T18:35:29.056Z,73.60
2022-12-22T18:37:57.850Z,76.40
2022-12-22T18:40:28.769Z,69.20
2022-12-22T18:43:07.194Z,63.40
2022-12-22T18:45:35.165Z,65.00
2022-12-22T18:48:02.999Z,64.00
2022-12-22T18:50:32.020Z,62.80
2022-12-22T18:53:02.542Z,62.70
2022-12-22T18:55:31.919Z,66.10
2022-12-22T18:58:00.528Z,70.60
2022-12-22T19:00:32.153Z,74.20
2022-12-22T19:03:01.424Z,68.70
2022-12-22T19:05:30.961Z,65.00
2022-12-22T19:07:59.619Z,63.00
2022-12-22T19:10:48.395Z,61.40
2022-12-22T19:13:19.593Z,60.20
2022-12-22T19:15:47.547Z,67.40
2022-12-22T19:18:21.143Z,70.40
2022-12-22T19:20:52.677Z,72.40
2022-12-22T19:23:21.483Z,65.00
2022-12-22T19:25:50.430Z,61.90
2022-12-22T19:28:37.125Z,60.30
2022-12-22T19:31:06.532Z,59.00
2022-12-22T19:33:34.575Z,67.10
2022-12-22T19:36:02.694Z,70.10
2022-12-22T19:38:30.601Z,71.20
2022-12-22T19:41:00.812Z,63.30
2022-12-22T19:43:29.712Z,60.80
2022-12-22T19:45:57.848Z,60.50
2022-12-22T19:48:26.900Z,65.80
2022-12-22T19:50:55.252Z,69.60
2022-12-22T19:53:23.282Z,72.70
2022-12-22T19:55:55.697Z,69.20
2022-12-22T19:58:28.106Z,63.50
2022-12-22T20:00:56.128Z,61.50
2022-12-22T20:03:25.155Z,60.10
2022-12-22T20:05:53.496Z,63.60
2022-12-22T20:08:21.568Z,68.50
2022-12-22T20:10:54.478Z,71.20
2022-12-22T20:13:27.758Z,71.80
2022-12-22T20:15:55.708Z,63.90
2022-12-22T20:18:24.988Z,61.60
2022-12-22T20:21:01.027Z,60.10
2022-12-22T20:23:29.946Z,65.10
2022-12-22T20:25:58.767Z,69.10
2022-12-22T20:28:28.321Z,71.60
2022-12-22T20:30:56.593Z,71.10
2022-12-22T20:33:25.767Z,63.60
2022-12-22T20:35:54.643Z,60.60
2022-12-22T20:38:42.672Z,59.30
2022-12-22T20:41:11.088Z,66.10
2022-12-22T20:43:39.651Z,69.60
2022-12-22T20:46:12.720Z,71.60
2022-12-22T20:48:42.407Z,67.40
2022-12-22T20:51:15.436Z,62.30
2022-12-22T20:53:43.941Z,60.20
2022-12-22T20:56:17.798Z,62.70
2022-12-22T20:58:46.011Z,68.20
2022-12-22T21:01:18.956Z,70.90
2022-12-22T21:03:47.042Z,71.90
2022-12-22T21:06:33.906Z,63.70
2022-12-22T21:09:01.969Z,61.00
2022-12-22T21:11:30.071Z,59.20
2022-12-22T21:13:58.588Z,66.20
2022-12-22T21:16:30.138Z,69.40
2022-12-22T21:18:59.395Z,71.80
2022-12-22T21:21:28.019Z,67.90
2022-12-22T21:23:55.936Z,62.20
2022-12-22T21:26:36.696Z,60.20
2022-12-22T21:29:09.791Z,63.50
2022-12-22T21:31:37.940Z,68.30
2022-12-22T21:34:05.850Z,71.20
2022-12-22T21:36:34.603Z,72.70
2022-12-22T21:39:04.268Z,65.10
2022-12-22T21:41:32.333Z,61.50
2022-12-22T21:44:00.328Z,60.00
2022-12-22T21:46:28.159Z,67.80
2022-12-22T21:48:56.712Z,70.90
2022-12-22T21:51:24.509Z,73.10
2022-12-22T21:53:52.488Z,70.20
2022-12-22T21:56:21.300Z,64.40
2022-12-22T21:58:49.195Z,61.80
2022-12-22T22:01:19.025Z,60.80
2022-12-22T22:03:47.416Z,68.30
2022-12-22T22:06:15.333Z,71.30
2022-12-22T22:08:43.512Z,73.30
2022-12-22T22:11:21.874Z,69.80
2022-12-22T22:13:50.201Z,63.90
2022-12-22T22:16:19.185Z,61.70
2022-12-22T22:18:47.897Z,67.30
2022-12-22T22:21:16.899Z,71.70
2022-12-22T22:23:45.136Z,74.50
2022-12-22T22:26:13.175Z,74.60
2022-12-22T22:28:41.257Z,66.50
2022-12-22T22:31:11.181Z,63.40
2022-12-22T22:33:39.414Z,65.00
2022-12-22T22:36:07.971Z,70.90
2022-12-22T22:38:36.377Z,73.40
2022-12-22T22:41:04.675Z,75.30
2022-12-22T22:43:32.648Z,68.20
2022-12-22T22:46:00.781Z,63.90
2022-12-22T22:48:28.955Z,62.60
2022-12-22T22:50:56.924Z,69.90
2022-12-22T22:53:25.110Z,73.00
2022-12-22T22:55:53.540Z,74.50
2022-12-22T22:58:21.683Z,71.50
2022-12-22T23:00:49.863Z,65.00
2022-12-22T23:03:18.018Z,62.70
2022-12-22T23:05:46.076Z,67.50
2022-12-22T23:08:14.138Z,71.80
2022-12-22T23:10:47.809Z,73.70
2022-12-22T23:13:15.699Z,75.40
2022-12-22T23:15:43.772Z,68.00
2022-12-22T23:18:11.827Z,64.00
2022-12-22T23:20:44.482Z,62.20
2022-12-22T23:23:12.471Z,69.80
2022-12-22T23:25:43.721Z,72.70
2022-12-22T23:28:11.847Z,74.40
2022-12-22T23:30:40.125Z,72.60
2022-12-22T23:33:08.563Z,65.30
2022-12-22T23:35:37.250Z,62.90
2022-12-22T23:38:06.247Z,67.40
2022-12-22T23:40:51.564Z,71.50
2022-12-22T23:43:22.726Z,73.70
2022-12-22T23:45:50.923Z,75.30
2022-12-22T23:48:19.050Z,66.90
2022-12-22T23:50:47.506Z,63.60
2022-12-22T23:53:16.235Z,64.40
2022-12-22T23:55:52.743Z,70.30
2022-12-22T23:58:21.441Z,73.00
